Time;durP1;ratioP1;P1;durP2;ratioP2;P2;SDS_P1;SDS_P2;PMS_P1;PMS_P2;Temp;Humidity;BMP_temperature;BMP_pressure;BME280_temperature;BME280_humidity;BME280_pressure;Samples;Min_cycle;Max_cycle;Signal;HPM_P1;HPM_P2
2023/01/22 00:03:16;;;;;;;;;;;;;;;18.55;33.01;95996.38;10423798;28;2593;-51
2023/01/22 00:08:17;;;;;;;;;;;;;;;18.56;32.79;95997.16;10424526;28;2568;-50
2023/01/22 00:13:18;;;;;;;;;;;;;;;18.52;32.77;96001.34;10431650;28;2564;-53
2023/01/22 00:18:18;;;;;;;;;;;;;;;18.49;32.47;95999.22;10427000;28;2962;-54
2023/01/22 00:23:18;;;;;;;;;;;;;;;18.47;32.61;96007.34;10425152;28;2554;-50
2023/01/22 00:28:19;;;;;;;;;;;;;;;18.46;32.37;96008.41;10427469;28;2563;-49
2023/01/22 00:33:19;;;;;;;;;;;;;;;18.42;32.36;96004.66;10423295;28;2673;-55
2023/01/22 00:38:19;;;;;;;;;;;;;;;18.41;32.13;96005.69;10425663;28;2928;-53
2023/01/22 00:43:20;;;;;;;;;;;;;;;18.39;32.40;95997.28;10428427;28;2586;-49
2023/01/22 00:48:20;;;;;;;;;;;;;;;18.38;32.53;96003.56;10418836;28;2660;-49
2023/01/22 00:53:20;;;;;;;;;;;;;;;18.36;32.35;96004.88;10423779;28;2558;-53
2023/01/22 00:58:20;;;;;;;;;;;;;;;18.33;32.38;96002.75;10424029;28;2921;-51
2023/01/22 01:03:28;;;;;;;;;;;;;;;18.30;32.06;96003.28;10427919;28;2553;-51
2023/01/22 01:08:29;;;;;;;;;;;;;;;18.30;32.61;96008.53;10426419;28;2581;-49
2023/01/22 01:13:30;;;;;;;;;;;;;;;18.26;32.35;96002.19;10433837;28;2544;-51
2023/01/22 01:18:30;;;;;;;;;;;;;;;18.24;32.46;96009.50;10425130;28;2930;-51
2023/01/22 01:23:30;;;;;;;;;;;;;;;18.21;32.80;96010.03;10421341;28;2605;-51
2023/01/22 01:28:30;;;;;;;;;;;;;;;18.17;32.91;96008.94;10427696;28;2681;-50
2023/01/22 01:33:31;;;;;;;;;;;;;;;18.18;32.74;96006.06;10422479;28;2560;-51
2023/01/22 01:38:31;;;;;;;;;;;;;;;18.13;32.94;96011.28;10423735;28;2566;-50
2023/01/22 01:43:31;;;;;;;;;;;;;;;18.14;32.70;96014.69;10418270;28;2598;-53
2023/01/22 01:48:38;;;;;;;;;;;;;;;18.09;33.11;96010.22;10419718;28;2686;-50
2023/01/22 01:53:39;;;;;;;;;;;;;;;18.06;32.80;96010.69;10430199;28;2706;-55
2023/01/22 01:58:40;;;;;;;;;;;;;;;18.05;32.69;96013.59;10449963;28;2613;-50
2023/01/22 02:03:40;;;;;;;;;;;;;;;18.04;32.84;96006.75;10430792;28;2568;-51
2023/01/22 02:08:41;;;;;;;;;;;;;;;18.01;33.08;95999.41;10429733;28;2629;-51
2023/01/22 02:13:44;;;;;;;;;;;;;;;18.00;32.75;96006.47;10425005;28;2744;-52
2023/01/22 02:18:44;;;;;;;;;;;;;;;17.99;32.63;96006.72;10420852;28;2596;-53
2023/01/22 02:23:44;;;;;;;;;;;;;;;17.97;32.76;95998.31;10415597;28;2514;-51
2023/01/22 02:28:45;;;;;;;;;;;;;;;17.98;33.00;96007.75;10416295;28;2481;-50
2023/01/22 02:33:45;;;;;;;;;;;;;;;17.96;33.14;96002.75;10422037;28;2590;-49
2023/01/22 02:38:45;;;;;;;;;;;;;;;17.96;33.22;96007.22;10416052;28;2612;-51
2023/01/22 02:43:46;;;;;;;;;;;;;;;17.95;33.09;96003.03;10412038;28;2633;-49
2023/01/22 02:48:46;;;;;;;;;;;;;;;17.94;33.07;96009.28;10418089;28;2617;-49
2023/01/22 02:53:46;;;;;;;;;;;;;;;17.96;33.05;96010.63;10416522;28;2646;-49
2023/01/22 02:58:46;;;;;;;;;;;;;;;17.96;33.07;96004.59;10420334;28;2605;-50
2023/01/22 03:03:48;;;;;;;;;;;;;;;17.96;33.14;96004.59;10424227;28;2522;-49
2023/01/22 03:08:48;;;;;;;;;;;;;;;17.98;33.09;96007.75;10411587;28;2587;-50
2023/01/22 03:24:26;;;;;;;;;;;;;;;17.99;33.13;96007.50;10412439;28;2731;-51
2023/01/22 03:29:27;;;;;;;;;;;;;;;18.00;32.96;96005.66;10414803;28;2636;-50
2023/01/22 03:34:27;;;;;;;;;;;;;;;17.99;32.96;96011.97;10416368;28;3053;-50
2023/01/22 03:39:27;;;;;;;;;;;;;;;18.01;32.82;96013.28;10412361;28;2608;-48
2023/01/22 03:44:27;;;;;;;;;;;;;;;18.02;32.81;96011.44;10420112;28;2680;-48
2023/01/22 03:49:28;;;;;;;;;;;;;;;18.02;32.82;96016.69;10415979;28;2631;-49
2023/01/22 03:54:28;;;;;;;;;;;;;;;18.01;32.65;96015.91;10420429;28;2552;-51
2023/01/22 03:59:28;;;;;;;;;;;;;;;18.01;32.80;96026.38;10422129;28;2600;-52
2023/01/22 04:04:29;;;;;;;;;;;;;;;18.02;32.66;96032.44;10413987;28;2601;-48
2023/01/22 04:09:29;;;;;;;;;;;;;;;18.02;32.60;96025.38;10411547;28;2595;-52
2023/01/22 04:14:29;;;;;;;;;;;;;;;18.03;32.60;96028.78;10419692;28;2929;-52
2023/01/22 04:19:29;;;;;;;;;;;;;;;18.03;32.47;96034.81;10414547;28;2470;-51
2023/01/22 04:24:30;;;;;;;;;;;;;;;18.02;32.46;96048.16;10408687;28;2656;-49
2023/01/22 04:29:30;;;;;;;;;;;;;;;18.02;32.58;96038.47;10405341;28;2645;-52
2023/01/22 04:34:30;;;;;;;;;;;;;;;18.03;32.51;96039.28;10403714;28;2577;-52
2023/01/22 04:39:30;;;;;;;;;;;;;;;18.04;32.38;96056.59;10408519;28;2576;-50
2023/01/22 04:44:31;;;;;;;;;;;;;;;18.03;32.50;96047.94;10405732;28;2529;-53
2023/01/22 04:49:31;;;;;;;;;;;;;;;18.03;32.37;96055.00;10410899;28;2598;-52
2023/01/22 04:54:31;;;;;;;;;;;;;;;18.03;32.21;96060.25;10411484;28;2708;-53
2023/01/22 04:59:32;;;;;;;;;;;;;;;18.03;32.25;96055.00;10418100;28;2581;-52
2023/01/22 05:04:32;;;;;;;;;;;;;;;18.02;32.23;96059.47;10414248;28;2654;-48
2023/01/22 05:09:32;;;;;;;;;;;;;;;18.02;32.22;96062.09;10410909;28;2713;-49
2023/01/22 05:14:32;;;;;;;;;;;;;;;18.05;32.03;96066.84;10426549;28;2562;-51
2023/01/22 05:19:34;;;;;;;;;;;;;;;18.09;31.89;96069.75;10414195;28;2612;-50
2023/01/22 05:24:34;;;;;;;;;;;;;;;18.14;31.74;96067.16;10411895;28;2513;-50
2023/01/22 05:29:34;;;;;;;;;;;;;;;18.20;31.57;96077.44;10409312;28;2536;-49
2023/01/22 05:34:35;;;;;;;;;;;;;;;18.25;31.47;96069.63;10409795;28;2547;-49
2023/01/22 05:39:35;;;;;;;;;;;;;;;18.32;31.52;96079.91;10415553;28;2482;-51
2023/01/22 05:44:35;;;;;;;;;;;;;;;18.36;31.32;96086.25;10427278;28;2692;-52
2023/01/22 05:49:35;;;;;;;;;;;;;;;18.40;31.28;96087.31;10411669;28;2616;-50
2023/01/22 05:54:37;;;;;;;;;;;;;;;18.42;31.02;96085.25;10422863;28;2553;-49
2023/01/22 05:59:38;;;;;;;;;;;;;;;18.43;31.45;96095.50;10425576;28;2590;-51
2023/01/22 06:04:38;;;;;;;;;;;;;;;18.47;31.04;96093.97;10417870;28;2730;-52
2023/01/22 06:09:38;;;;;;;;;;;;;;;18.50;31.17;96100.56;10418907;28;2675;-49
2023/01/22 06:14:39;;;;;;;;;;;;;;;18.52;30.98;96106.34;10421649;28;2583;-49
2023/01/22 06:19:39;;;;;;;;;;;;;;;18.55;30.89;96111.06;10418503;28;2607;-50
2023/01/22 06:24:39;;;;;;;;;;;;;;;18.54;30.71;96107.69;10419741;28;2579;-49
2023/01/22 06:29:39;;;;;;;;;;;;;;;18.57;30.79;96114.25;10420085;28;2665;-49
2023/01/22 06:34:40;;;;;;;;;;;;;;;18.61;30.58;96113.50;10423923;28;2557;-53
2023/01/22 06:39:40;;;;;;;;;;;;;;;18.60;30.80;96125.06;10416855;28;2656;-50
2023/01/22 06:44:40;;;;;;;;;;;;;;;18.63;30.71;96123.72;10415428;28;2548;-49
2023/01/22 06:49:40;;;;;;;;;;;;;;;18.64;30.61;96133.22;10421021;28;2581;-49
2023/01/22 06:54:41;;;;;;;;;;;;;;;18.65;30.84;96132.94;10415828;28;2601;-54
2023/01/22 06:59:41;;;;;;;;;;;;;;;18.67;30.56;96135.31;10414558;28;2585;-48
2023/01/22 07:04:41;;;;;;;;;;;;;;;18.69;30.91;96141.91;10408750;28;2600;-49
2023/01/22 07:09:42;;;;;;;;;;;;;;;18.69;30.73;96155.03;10413604;28;2596;-51
2023/01/22 07:14:42;;;;;;;;;;;;;;;18.71;30.61;96157.44;10415075;28;2663;-53
2023/01/22 07:19:42;;;;;;;;;;;;;;;18.75;30.29;96157.72;10420964;28;2596;-52
2023/01/22 07:24:42;;;;;;;;;;;;;;;18.74;30.32;96162.16;10413877;28;2613;-52
2023/01/22 07:29:43;;;;;;;;;;;;;;;18.71;30.41;96157.44;10411814;28;2687;-50
2023/01/22 07:34:44;;;;;;;;;;;;;;;18.75;30.22;96160.34;10421535;28;2606;-49
2023/01/22 07:39:44;;;;;;;;;;;;;;;18.73;30.75;96160.59;10404705;28;2679;-50
2023/01/22 07:44:44;;;;;;;;;;;;;;;18.79;30.37;96167.47;10414938;28;2576;-49
2023/01/22 07:49:45;;;;;;;;;;;;;;;18.82;30.85;96164.31;10413476;28;2712;-49
2023/01/22 07:54:45;;;;;;;;;;;;;;;18.86;30.83;96162.78;10414112;28;2529;-52
2023/01/22 07:59:45;;;;;;;;;;;;;;;18.87;30.75;96160.94;10416213;28;2604;-51
2023/01/22 08:04:46;;;;;;;;;;;;;;;18.88;30.84;96171.19;10415880;28;2545;-51
2023/01/22 08:09:46;;;;;;;;;;;;;;;18.89;30.37;96166.75;10418228;28;2918;-50
2023/01/22 08:14:46;;;;;;;;;;;;;;;18.86;30.59;96178.53;10419136;28;2640;-53
2023/01/22 08:19:46;;;;;;;;;;;;;;;18.83;30.60;96179.06;10411879;28;2709;-52
2023/01/22 08:24:47;;;;;;;;;;;;;;;18.84;30.30;96183.25;10421576;28;2591;-49
2023/01/22 08:29:50;;;;;;;;;;;;;;;18.80;30.35;96184.78;10417035;28;2717;-52
2023/01/22 08:34:53;;;;;;;;;;;;;;;18.76;30.42;96183.72;10426161;28;2612;-50
2023/01/22 08:39:53;;;;;;;;;;;;;;;18.73;30.55;96189.47;10431885;28;2522;-51
2023/01/22 08:44:53;;;;;;;;;;;;;;;18.74;30.51;96196.31;10428389;28;2623;-50
2023/01/22 08:49:53;;;;;;;;;;;;;;;18.69;30.73;96202.31;10427987;28;2596;-49
2023/01/22 08:54:54;;;;;;;;;;;;;;;18.66;30.78;96207.28;10426410;28;2597;-51
2023/01/22 08:59:54;;;;;;;;;;;;;;;18.62;31.03;96209.59;10418596;28;2620;-48
2023/01/22 09:04:54;;;;;;;;;;;;;;;18.60;31.29;96224.03;10418927;28;2565;-49
2023/01/22 09:09:54;;;;;;;;;;;;;;;18.56;31.27;96228.19;10417755;28;2551;-49
2023/01/22 09:14:55;;;;;;;;;;;;;;;18.52;31.21;96243.66;10420723;28;2590;-50
2023/01/22 09:19:55;;;;;;;;;;;;;;;18.50;31.51;96244.94;10427750;28;2617;-51
2023/01/22 09:24:55;;;;;;;;;;;;;;;18.49;31.59;96265.13;10418903;28;2611;-47
2023/01/22 09:29:56;;;;;;;;;;;;;;;18.48;31.43;96265.38;10425590;28;2540;-48
2023/01/22 09:34:56;;;;;;;;;;;;;;;18.42;31.37;96272.38;10419726;28;2788;-50
2023/01/22 09:39:56;;;;;;;;;;;;;;;18.46;31.79;96270.91;10410382;28;2529;-48
2023/01/22 09:44:58;;;;;;;;;;;;;;;18.46;32.35;96278.78;10423425;28;2735;-49
2023/01/22 09:49:59;;;;;;;;;;;;;;;18.49;32.38;96282.72;10414020;28;2565;-52
2023/01/22 09:54:59;;;;;;;;;;;;;;;18.53;32.65;96278.56;10421117;28;2539;-50
2023/01/22 10:00:00;;;;;;;;;;;;;;;18.59;32.71;96275.72;10418440;28;2689;-47
2023/01/22 10:05:04;;;;;;;;;;;;;;;18.65;32.74;96280.00;10419513;28;2599;-49
2023/01/22 10:10:31;;;;;;;;;;;;;;;18.73;32.47;96281.41;10416553;28;2583;-49
2023/01/22 10:15:31;;;;;;;;;;;;;;;18.73;32.25;96281.41;10412719;28;2559;-48
2023/01/22 10:20:31;;;;;;;;;;;;;;;18.79;32.30;96280.41;10418744;28;2582;-50
2023/01/22 10:25:32;;;;;;;;;;;;;;;18.83;32.24;96281.47;10407978;28;2619;-50
2023/01/22 10:30:34;;;;;;;;;;;;;;;18.88;31.69;96284.13;10409657;28;2507;-50
2023/01/22 10:35:41;;;;;;;;;;;;;;;18.87;31.86;96287.03;10414897;28;2780;-49
2023/01/22 10:40:41;;;;;;;;;;;;;;;18.87;31.63;96287.03;10420975;28;2617;-51
2023/01/22 10:45:54;;;;;;;;;;;;;;;18.85;31.28;96274.16;10413382;28;2568;-49
2023/01/22 10:51:13;;;;;;;;;;;;;;;18.81;31.14;96275.69;10412610;28;2625;-49
2023/01/22 10:56:22;;;;;;;;;;;;;;;18.83;31.08;96286.75;10418631;28;2732;-49
2023/01/22 11:01:35;;;;;;;;;;;;;;;18.80;31.21;96281.16;10421661;28;2605;-50
2023/01/22 11:06:38;;;;;;;;;;;;;;;18.76;31.10;96283.50;10430863;28;2722;-52
2023/01/22 11:11:40;;;;;;;;;;;;;;;18.72;31.21;96285.06;10412107;28;2520;-53
2023/01/22 11:16:40;;;;;;;;;;;;;;;18.69;31.43;96278.44;10440117;28;2586;-52
2023/01/22 11:21:50;;;;;;;;;;;;;;;18.66;31.48;96275.53;10403386;28;2623;-51
2023/01/22 11:27:09;;;;;;;;;;;;;;;18.63;31.42;96281.28;10413184;28;2580;-50
2023/01/22 11:32:29;;;;;;;;;;;;;;;18.60;31.36;96273.91;10408530;28;2540;-51
2023/01/22 11:37:32;;;;;;;;;;;;;;;18.56;31.52;96264.94;10405980;28;2898;-54
2023/01/22 11:42:55;;;;;;;;;;;;;;;18.53;31.51;96274.09;10410683;28;2916;-53
2023/01/22 11:48:14;;;;;;;;;;;;;;;18.49;31.49;96270.38;10398812;28;2914;-52
2023/01/22 11:53:24;;;;;;;;;;;;;;;18.47;31.39;96269.84;10403896;28;2867;-53
2023/01/22 11:58:34;;;;;;;;;;;;;;;18.43;31.99;96270.53;10433045;28;2835;-52
2023/01/22 12:03:56;;;;;;;;;;;;;;;18.42;31.76;96263.72;10423931;28;2953;-53
2023/01/22 12:08:56;;;;;;;;;;;;;;;18.44;31.92;96253.81;10418951;28;2897;-53
2023/01/22 12:14:12;;;;;;;;;;;;;;;18.44;31.90;96245.94;10425868;28;2903;-48
2023/01/22 12:19:29;;;;;;;;;;;;;;;18.43;32.07;96249.53;10423123;28;2836;-54
2023/01/22 12:24:31;;;;;;;;;;;;;;;18.40;31.96;96252.69;10426315;28;2824;-48
2023/01/22 12:29:33;;;;;;;;;;;;;;;18.38;31.72;96257.38;10436364;28;2958;-52
2023/01/22 12:34:53;;;;;;;;;;;;;;;18.36;31.81;96255.00;10423442;28;2907;-51
2023/01/22 12:40:02;;;;;;;;;;;;;;;18.36;31.98;96255.00;10423720;28;2958;-51
2023/01/22 12:45:16;;;;;;;;;;;;;;;18.61;32.08;96267.59;10422550;28;2891;-51
2023/01/22 12:50:17;;;;;;;;;;;;;;;18.80;31.50;96260.97;10413137;28;2860;-49
2023/01/22 12:55:30;;;;;;;;;;;;;;;18.84;31.66;96262.03;10422442;28;2883;-48
2023/01/22 13:00:34;;;;;;;;;;;;;;;18.94;31.59;96272.63;10428132;28;2891;-49
2023/01/22 13:05:36;;;;;;;;;;;;;;;19.01;31.44;96282.94;10420321;28;2902;-50
2023/01/22 13:10:36;;;;;;;;;;;;;;;18.97;31.23;96280.03;10431002;28;2919;-52
2023/01/22 13:15:36;;;;;;;;;;;;;;;18.88;31.65;96275.47;10449498;28;2863;-49
2023/01/22 13:20:44;;;;;;;;;;;;;;;18.83;31.56;96285.94;10426166;28;2827;-49
2023/01/22 13:25:45;;;;;;;;;;;;;;;18.91;31.37;96277.59;10433986;28;3035;-50
2023/01/22 13:30:55;;;;;;;;;;;;;;;19.01;31.06;96282.94;10407923;28;2756;-51
2023/01/22 13:35:56;;;;;;;;;;;;;;;19.05;31.04;96290.06;10414015;28;2876;-51
2023/01/22 13:40:56;;;;;;;;;;;;;;;19.06;30.77;96283.75;10403297;28;2830;-51
2023/01/22 13:45:57;;;;;;;;;;;;;;;19.10;30.85;96297.97;10415562;28;2900;-52
2023/01/22 13:50:57;;;;;;;;;;;;;;;19.11;30.74;96291.69;10417491;28;2784;-51
2023/01/22 13:55:58;;;;;;;;;;;;;;;19.21;31.11;96304.91;10428406;28;2879;-50
2023/01/22 14:00:59;;;;;;;;;;;;;;;19.21;31.53;96304.91;10430220;28;2910;-52
2023/01/22 14:06:09;;;;;;;;;;;;;;;19.08;31.24;96310.56;10424916;28;3239;-52
2023/01/22 14:11:09;;;;;;;;;;;;;;;19.14;31.26;96309.59;10416317;28;2884;-49
2023/01/22 14:16:09;;;;;;;;;;;;;;;19.21;31.11;96314.63;10415701;28;2835;-50
2023/01/22 14:21:10;;;;;;;;;;;;;;;19.24;31.04;96314.94;10431665;28;2871;-47
2023/01/22 14:26:11;;;;;;;;;;;;;;;19.27;30.86;96324.94;10438349;28;3174;-49
2023/01/22 14:31:11;;;;;;;;;;;;;;;19.27;30.74;96326.75;10438950;28;2898;-48
2023/01/22 14:36:11;;;;;;;;;;;;;;;19.26;31.07;96323.38;10427038;28;2924;-51
2023/01/22 14:41:11;;;;;;;;;;;;;;;19.35;30.84;96331.63;10433961;28;2841;-53
2023/01/22 14:46:12;;;;;;;;;;;;;;;19.43;30.57;96339.03;10432452;28;3204;-54
2023/01/22 14:51:12;;;;;;;;;;;;;;;19.56;30.40;96345.69;10434250;28;2895;-48
2023/01/22 14:56:12;;;;;;;;;;;;;;;19.62;30.22;96347.31;10433422;28;2929;-50
2023/01/22 15:01:16;;;;;;;;;;;;;;;19.69;30.13;96355.78;10437947;28;2940;-53
2023/01/22 15:06:17;;;;;;;;;;;;;;;19.85;30.46;96357.44;10430971;28;2931;-49
2023/01/22 15:11:17;;;;;;;;;;;;;;;19.99;30.49;96358.59;10436730;28;2808;-49
2023/01/22 15:16:17;;;;;;;;;;;;;;;20.10;30.94;96365.50;10422975;28;2936;-48
2023/01/22 15:21:18;;;;;;;;;;;;;;;20.13;31.27;96365.00;10431063;28;2926;-52
2023/01/22 15:26:20;;;;;;;;;;;;;;;20.14;30.27;96366.56;10417158;28;3288;-49
2023/01/22 15:31:21;;;;;;;;;;;;;;;20.10;30.31;96365.50;10415487;28;2876;-50
2023/01/22 15:36:21;;;;;;;;;;;;;;;20.12;30.17;96368.66;10421742;28;3107;-48
2023/01/22 15:41:25;;;;;;;;;;;;;;;20.09;30.33;96364.69;10422317;28;2886;-52
2023/01/22 15:46:26;;;;;;;;;;;;;;;20.09;30.37;96374.44;10424532;28;2871;-50
2023/01/22 15:51:27;;;;;;;;;;;;;;;20.17;31.10;96366.84;10421883;28;2899;-51
2023/01/22 15:56:28;;;;;;;;;;;;;;;20.12;31.02;96381.81;10420634;28;2800;-57
2023/01/22 16:01:28;;;;;;;;;;;;;;;20.15;31.23;96386.59;10418044;28;2887;-51
2023/01/22 16:06:29;;;;;;;;;;;;;;;20.10;30.85;96381.28;10450230;28;2864;-48
2023/01/22 16:11:29;;;;;;;;;;;;;;;20.11;30.86;96381.03;10420397;28;2823;-48
2023/01/22 16:16:35;;;;;;;;;;;;;;;20.14;29.89;96382.34;10424728;28;2835;-54
2023/01/22 16:21:35;;;;;;;;;;;;;;;20.13;29.66;96386.81;10427270;28;2883;-50
2023/01/22 16:26:35;;;;;;;;;;;;;;;20.13;29.96;96388.69;10420757;28;2953;-46
2023/01/22 16:31:36;;;;;;;;;;;;;;;20.09;29.88;96392.88;10419974;28;2823;-50
2023/01/22 16:36:36;;;;;;;;;;;;;;;20.03;30.02;96399.16;10418270;28;2868;-50
2023/01/22 16:41:36;;;;;;;;;;;;;;;20.03;29.95;96401.78;10414590;28;2972;-52
2023/01/22 16:46:37;;;;;;;;;;;;;;;20.03;29.59;96413.09;10427398;28;3034;-50
2023/01/22 16:51:38;;;;;;;;;;;;;;;19.96;29.85;96403.84;10428498;28;2864;-51
2023/01/22 16:56:39;;;;;;;;;;;;;;;19.94;29.63;96408.56;10428662;28;2879;-48
2023/01/22 17:01:39;;;;;;;;;;;;;;;19.87;29.77;96413.22;10428532;28;2923;-53
2023/01/22 17:06:40;;;;;;;;;;;;;;;19.86;29.66;96417.72;10425859;28;2912;-51
2023/01/22 17:11:42;;;;;;;;;;;;;;;19.83;29.54;96418.22;10430026;28;2969;-51
2023/01/22 17:16:42;;;;;;;;;;;;;;;19.83;29.71;96420.03;10430508;28;2846;-53
2023/01/22 17:21:42;;;;;;;;;;;;;;;19.89;30.05;96411.13;10439604;28;2898;-53
2023/01/22 17:26:43;;;;;;;;;;;;;;;19.90;29.77;96420.63;10421115;28;3006;-52
2023/01/22 17:31:43;;;;;;;;;;;;;;;19.88;29.65;96428.78;10427847;28;2883;-52
2023/01/22 17:36:43;;;;;;;;;;;;;;;19.88;29.74;96431.41;10433919;28;2863;-49
2023/01/22 17:41:44;;;;;;;;;;;;;;;19.85;29.49;96437.16;10428271;28;2954;-49
2023/01/22 17:46:44;;;;;;;;;;;;;;;19.85;30.74;96441.63;10430775;28;2898;-49
2023/01/22 17:51:44;;;;;;;;;;;;;;;19.89;31.46;96437.44;10420762;28;2876;-54
2023/01/22 17:56:47;;;;;;;;;;;;;;;19.91;31.52;96443.25;10435036;28;2999;-47
2023/01/22 18:01:48;;;;;;;;;;;;;;;19.90;31.55;96439.84;10436154;28;2891;-48
2023/01/22 18:06:49;;;;;;;;;;;;;;;19.91;31.65;96440.63;10430534;28;2820;-52
2023/01/22 18:11:49;;;;;;;;;;;;;;;19.88;31.89;96446.41;10425241;28;2864;-51
2023/01/22 18:16:49;;;;;;;;;;;;;;;19.89;31.80;96464.56;10424605;28;2876;-49
2023/01/22 18:21:50;;;;;;;;;;;;;;;19.89;31.82;96453.25;10419908;28;2967;-49
2023/01/22 18:26:50;;;;;;;;;;;;;;;19.86;31.56;96449.28;10425228;28;2923;-49
2023/01/22 18:31:50;;;;;;;;;;;;;;;19.86;31.79;96459.03;10415470;28;2884;-51
2023/01/22 18:36:51;;;;;;;;;;;;;;;19.86;31.57;96464.28;10414654;28;2879;-48
2023/01/22 18:41:51;;;;;;;;;;;;;;;19.86;31.77;96466.91;10409307;28;2960;-48
2023/01/22 18:46:54;;;;;;;;;;;;;;;19.86;31.75;96470.34;10412510;28;2842;-50
2023/01/22 18:51:58;;;;;;;;;;;;;;;19.86;31.60;96475.59;10421167;28;2900;-50
2023/01/22 18:56:58;;;;;;;;;;;;;;;19.88;31.78;96483.25;10427261;28;2838;-47
2023/01/22 19:01:59;;;;;;;;;;;;;;;19.88;31.44;96483.25;10422774;28;2892;-51
2023/01/22 19:06:59;;;;;;;;;;;;;;;19.89;31.63;96490.06;10424885;28;2827;-48
2023/01/22 19:12:00;;;;;;;;;;;;;;;19.91;31.32;96482.72;10419622;28;2879;-49
2023/01/22 19:17:02;;;;;;;;;;;;;;;19.91;31.45;96482.72;10432453;28;2959;-49
2023/01/22 19:22:03;;;;;;;;;;;;;;;19.94;31.35;96490.94;10425464;28;2890;-49
2023/01/22 19:27:03;;;;;;;;;;;;;;;19.93;31.15;96496.41;10429923;28;2906;-50
2023/01/22 19:32:03;;;;;;;;;;;;;;;19.95;31.15;96502.22;10420114;28;3030;-52
2023/01/22 19:37:05;;;;;;;;;;;;;;;19.96;30.58;96511.72;10427135;28;2902;-48
2023/01/22 19:42:05;;;;;;;;;;;;;;;19.79;29.34;96511.03;10425631;28;2866;-50
2023/01/22 19:47:06;;;;;;;;;;;;;;;19.86;30.90;96516.91;10429290;28;3192;-46
2023/01/22 19:52:07;;;;;;;;;;;;;;;19.93;31.15;96533.25;10426972;28;2855;-48
2023/01/22 19:57:08;;;;;;;;;;;;;;;19.94;30.90;96529.59;10453401;28;2888;-50
2023/01/22 20:02:12;;;;;;;;;;;;;;;19.96;30.89;96535.41;10433579;28;2907;-49
2023/01/22 20:07:13;;;;;;;;;;;;;;;19.97;31.08;96542.28;10429574;28;2879;-49
2023/01/22 20:12:13;;;;;;;;;;;;;;;19.91;30.40;96544.03;10420131;28;2884;-46
2023/01/22 20:17:14;;;;;;;;;;;;;;;19.93;30.80;96549.84;10432401;28;2823;-46
2023/01/22 20:22:14;;;;;;;;;;;;;;;19.96;30.88;96553.81;10433038;28;2936;-49
2023/01/22 20:27:14;;;;;;;;;;;;;;;19.99;30.75;96558.59;10432766;28;2938;-46
2023/01/22 20:32:15;;;;;;;;;;;;;;;19.99;30.54;96554.13;10436431;28;2877;-47
2023/01/22 20:37:15;;;;;;;;;;;;;;;20.01;30.83;96561.78;10442427;28;2895;-47
2023/01/22 20:42:15;;;;;;;;;;;;;;;20.05;30.82;96558.38;10443396;28;2848;-48
2023/01/22 20:47:16;;;;;;;;;;;;;;;20.13;30.60;96559.78;10446978;28;2889;-46
2023/01/22 20:52:16;;;;;;;;;;;;;;;20.17;30.25;96553.72;10446152;28;2873;-51
2023/01/22 20:57:16;;;;;;;;;;;;;;;20.28;29.92;96565.16;10440234;28;2856;-48
2023/01/22 21:02:17;;;;;;;;;;;;;;;20.30;29.77;96565.72;10438383;28;2991;-46
2023/01/22 21:07:17;;;;;;;;;;;;;;;20.38;29.99;96559.19;10440722;28;2896;-49
2023/01/22 21:12:17;;;;;;;;;;;;;;;20.41;29.55;96556.84;10423711;28;2906;-49
2023/01/22 21:17:19;;;;;;;;;;;;;;;20.43;29.72;96559.22;10442437;28;2829;-48
2023/01/22 21:22:20;;;;;;;;;;;;;;;20.46;29.52;96559.53;10431305;28;2896;-47
2023/01/22 21:27:20;;;;;;;;;;;;;;;20.47;29.54;96569.00;10440179;28;2958;-49
2023/01/22 21:32:20;;;;;;;;;;;;;;;20.48;29.41;96580.34;10436923;28;2927;-48
2023/01/22 21:37:21;;;;;;;;;;;;;;;20.49;29.51;96581.91;10424332;28;2898;-50
2023/01/22 21:47:40;;;;;;;;;;;;;;;20.48;29.45;96585.59;10416099;28;2906;-46
2023/01/22 21:52:40;;;;;;;;;;;;;;;20.48;29.36;96578.50;10424128;28;2845;-49
2023/01/22 21:57:41;;;;;;;;;;;;;;;20.11;29.47;96582.91;10420447;28;2820;-50
2023/01/22 22:02:42;;;;;;;;;;;;;;;20.17;29.42;96576.66;10423991;28;3342;-52
2023/01/22 22:07:42;;;;;;;;;;;;;;;20.21;29.64;96575.94;10427739;28;2863;-51
2023/01/22 22:12:42;;;;;;;;;;;;;;;20.22;29.50;96574.88;10428571;28;2904;-50
2023/01/22 22:17:44;;;;;;;;;;;;;;;20.20;29.66;96579.59;10428946;28;2915;-50
2023/01/22 22:22:44;;;;;;;;;;;;;;;20.18;29.44;96594.81;10428500;28;2870;-48
2023/01/22 22:27:45;;;;;;;;;;;;;;;20.13;29.41;96584.22;10437655;28;2848;-52
2023/01/22 22:32:45;;;;;;;;;;;;;;;20.08;29.41;96572.88;10425652;28;2951;-51
2023/01/22 22:37:45;;;;;;;;;;;;;;;20.04;29.55;96574.41;10436126;28;2864;-51
2023/01/22 22:42:45;;;;;;;;;;;;;;;19.99;29.51;96569.13;10425923;28;2890;-49
2023/01/22 22:47:46;;;;;;;;;;;;;;;19.93;29.54;96575.38;10426313;28;2836;-53
2023/01/22 22:52:46;;;;;;;;;;;;;;;19.87;29.35;96582.41;10425444;28;2834;-51
2023/01/22 22:57:47;;;;;;;;;;;;;;;19.83;29.27;96577.91;10424387;28;2891;-50
2023/01/22 23:02:47;;;;;;;;;;;;;;;19.77;29.53;96586.78;10456419;28;2873;-48
2023/01/22 23:07:47;;;;;;;;;;;;;;;19.73;29.38;96593.59;10429096;28;2816;-50
2023/01/22 23:12:47;;;;;;;;;;;;;;;19.69;29.37;96595.13;10427865;28;2868;-51
2023/01/22 23:17:48;;;;;;;;;;;;;;;19.64;29.22;96593.22;10425819;28;2847;-50
2023/01/22 23:22:49;;;;;;;;;;;;;;;19.62;29.33;96599.81;10424011;28;3032;-51
2023/01/22 23:27:50;;;;;;;;;;;;;;;19.57;29.11;96607.63;10417369;28;2946;-51
2023/01/22 23:32:50;;;;;;;;;;;;;;;19.53;29.08;96596.00;10417403;28;2888;-51
2023/01/22 23:37:50;;;;;;;;;;;;;;;19.49;29.22;96608.88;10416317;28;2892;-51
2023/01/22 23:42:51;;;;;;;;;;;;;;;19.44;29.09;96608.78;10422026;28;3243;-49
2023/01/22 23:47:51;;;;;;;;;;;;;;;19.40;29.24;96613.75;10414178;28;2883;-50
2023/01/22 23:52:51;;;;;;;;;;;;;;;19.35;29.02;96611.03;10422186;28;2922;-49
2023/01/22 23:57:52;;;;;;;;;;;;;;;19.33;29.14;96607.06;10413838;28;2879;-51
